createdAt,value
2023-04-18T00:01:10.011Z,4.13
2023-04-18T00:03:38.349Z,3.55
2023-04-18T00:06:05.877Z,3.35
2023-04-18T00:08:33.705Z,4.18
2023-04-18T00:11:00.579Z,4.43
2023-04-18T00:13:28.549Z,4.13
2023-04-18T00:15:55.430Z,3.97
2023-04-18T00:18:22.443Z,3.83
2023-04-18T00:20:49.347Z,4.15
2023-04-18T00:23:16.395Z,4.10
2023-04-18T00:25:43.190Z,3.45
2023-04-18T00:28:10.049Z,4.03
2023-04-18T00:30:36.901Z,4.68
2023-04-18T00:33:04.746Z,4.35
2023-04-18T00:35:32.101Z,4.63
2023-04-18T00:37:59.023Z,4.18
2023-04-18T00:40:25.861Z,4.20
2023-04-18T00:42:52.945Z,3.95
2023-04-18T00:45:19.856Z,4.50
2023-04-18T00:47:47.828Z,4.50
2023-04-18T00:50:15.368Z,4.07
2023-04-18T00:52:42.351Z,4.00
2023-04-18T00:55:09.644Z,5.53
2023-04-18T00:57:36.538Z,5.53
2023-04-18T01:00:08.904Z,4.13
2023-04-18T01:02:36.563Z,4.00
2023-04-18T01:05:04.206Z,4.05
2023-04-18T01:07:31.981Z,4.10
2023-04-18T01:09:58.982Z,3.70
2023-04-18T01:12:25.971Z,4.13
2023-04-18T01:14:54.551Z,4.53
2023-04-18T01:17:22.569Z,4.15
2023-04-18T01:19:51.549Z,4.38
2023-04-18T01:22:18.423Z,3.60
2023-04-18T01:24:45.289Z,4.10
2023-04-18T01:27:13.594Z,4.00
2023-04-18T01:29:40.798Z,4.15
2023-04-18T01:32:07.692Z,3.90
2023-04-18T01:34:34.508Z,3.67
2023-04-18T01:37:01.360Z,4.10
2023-04-18T01:39:28.682Z,4.20
2023-04-18T01:41:58.038Z,3.97
2023-04-18T01:44:24.869Z,3.72
2023-04-18T01:46:51.766Z,4.00
2023-04-18T01:49:18.637Z,4.07
2023-04-18T01:51:45.519Z,4.22
2023-04-18T01:54:12.705Z,4.28
2023-04-18T01:56:39.780Z,4.43
2023-04-18T01:59:06.623Z,4.63
2023-04-18T02:01:33.730Z,4.30
2023-04-18T02:04:00.877Z,4.53
2023-04-18T02:06:27.950Z,4.30
2023-04-18T02:08:54.846Z,4.30
2023-04-18T02:11:25.004Z,4.40
2023-04-18T02:13:52.495Z,4.38
2023-04-18T02:16:19.565Z,4.18
2023-04-18T02:18:46.726Z,3.95
2023-04-18T02:21:13.874Z,3.78
2023-04-18T02:23:40.821Z,4.55
2023-04-18T02:26:07.665Z,4.10
2023-04-18T02:28:34.596Z,3.75
2023-04-18T02:31:03.396Z,4.30
2023-04-18T02:33:30.307Z,4.15
2023-04-18T02:35:57.168Z,5.10
2023-04-18T02:38:24.035Z,4.82
2023-04-18T02:40:52.429Z,4.80
2023-04-18T02:43:20.824Z,4.70
2023-04-18T02:45:47.742Z,4.75
2023-04-18T02:48:14.771Z,4.70
2023-04-18T02:50:41.791Z,4.63
2023-04-18T02:53:08.843Z,4.43
2023-04-18T02:55:55.987Z,4.88
2023-04-18T02:58:29.810Z,4.30
2023-04-18T03:01:33.366Z,4.25
2023-04-18T03:04:10.613Z,4.80
2023-04-18T03:06:42.236Z,4.35
2023-04-18T03:09:09.172Z,4.00
2023-04-18T03:11:40.543Z,4.60
2023-04-18T03:14:07.930Z,4.60
2023-04-18T03:16:42.611Z,4.82
2023-04-18T03:19:13.173Z,4.90
2023-04-18T03:21:40.299Z,4.43
2023-04-18T03:24:08.602Z,4.72
2023-04-18T03:26:36.635Z,5.00
2023-04-18T03:29:04.527Z,4.50
2023-04-18T03:31:32.119Z,5.63
2023-04-18T03:33:59.077Z,5.78
2023-04-18T03:36:28.703Z,5.35
2023-04-18T03:38:55.943Z,4.88
2023-04-18T03:41:24.348Z,5.32
2023-04-18T03:43:51.490Z,5.10
2023-04-18T03:46:18.488Z,5.07
2023-04-18T03:48:46.336Z,5.28
2023-04-18T03:51:14.229Z,4.97
2023-04-18T03:53:41.399Z,4.90
2023-04-18T03:56:08.329Z,4.85
2023-04-18T03:58:47.574Z,5.38
2023-04-18T04:01:14.547Z,5.28
2023-04-18T04:03:41.538Z,4.97
2023-04-18T04:06:08.474Z,5.68
2023-04-18T04:08:35.353Z,5.13
2023-04-18T04:11:02.844Z,4.95
2023-04-18T04:13:29.924Z,5.10
2023-04-18T04:15:57.488Z,5.65
2023-04-18T04:18:31.224Z,5.20
2023-04-18T04:21:00.478Z,5.03
2023-04-18T04:23:46.243Z,5.22
2023-04-18T04:26:23.581Z,5.20
2023-04-18T04:29:03.710Z,5.55
2023-04-18T04:31:32.647Z,4.90
2023-04-18T04:33:59.529Z,4.40
2023-04-18T04:36:27.296Z,4.88
2023-04-18T04:38:56.901Z,4.72
2023-04-18T04:41:32.026Z,4.60
2023-04-18T04:43:59.670Z,5.63
2023-04-18T04:46:30.840Z,5.25
2023-04-18T04:49:00.157Z,5.28
2023-04-18T04:51:28.040Z,5.47
2023-04-18T04:53:55.847Z,5.15
2023-04-18T04:56:23.597Z,5.25
2023-04-18T04:58:50.580Z,5.40
2023-04-18T05:01:24.360Z,5.00
2023-04-18T05:03:52.803Z,4.85
2023-04-18T05:06:20.918Z,5.30
2023-04-18T05:08:48.448Z,5.22
2023-04-18T05:11:15.801Z,5.30
2023-04-18T05:13:42.687Z,5.15
2023-04-18T05:16:09.556Z,5.28
2023-04-18T05:18:39.323Z,5.78
2023-04-18T05:21:06.250Z,6.10
2023-04-18T05:23:33.512Z,6.05
2023-04-18T05:26:00.629Z,6.53
2023-04-18T05:28:27.664Z,5.65
2023-04-18T05:31:01.140Z,6.13
2023-04-18T05:33:29.142Z,5.68
2023-04-18T05:35:56.289Z,5.57
2023-04-18T05:38:23.148Z,5.50
2023-04-18T05:40:51.203Z,5.10
2023-04-18T05:43:19.349Z,5.68
2023-04-18T05:45:46.461Z,5.47
2023-04-18T05:48:13.586Z,5.38
2023-04-18T05:50:40.564Z,4.85
2023-04-18T05:53:07.467Z,4.88
2023-04-18T05:55:34.472Z,5.68
2023-04-18T05:58:01.318Z,5.47
2023-04-18T06:00:28.536Z,5.25
2023-04-18T06:02:55.547Z,5.07
2023-04-18T06:05:22.856Z,5.05
2023-04-18T06:07:50.033Z,5.15
2023-04-18T06:10:17.197Z,5.05
2023-04-18T06:12:44.096Z,5.15
2023-04-18T06:15:11.421Z,5.10
2023-04-18T06:17:38.281Z,5.00
2023-04-18T06:20:06.308Z,5.05
2023-04-18T06:22:36.324Z,5.60
2023-04-18T06:25:03.550Z,6.32
2023-04-18T06:27:31.900Z,6.43
2023-04-18T06:29:59.126Z,6.50
2023-04-18T06:32:26.157Z,8.75
2023-04-18T06:34:53.284Z,8.30
2023-04-18T06:37:20.242Z,8.95
2023-04-18T06:39:47.165Z,8.40
2023-04-18T06:42:14.068Z,8.77
2023-04-18T06:44:44.725Z,8.77
2023-04-18T06:47:11.757Z,9.10
2023-04-18T06:49:38.616Z,8.05
2023-04-18T06:52:05.647Z,9.05
2023-04-18T06:54:32.480Z,8.10
2023-04-18T06:56:59.410Z,8.75
2023-04-18T06:59:26.610Z,8.02
2023-04-18T07:01:53.512Z,9.10
2023-04-18T07:04:20.790Z,8.55
2023-04-18T07:06:47.761Z,9.10
2023-04-18T07:09:14.660Z,9.88
2023-04-18T07:11:41.486Z,12.10
2023-04-18T07:14:08.344Z,11.27
2023-04-18T07:16:35.215Z,11.35
2023-04-18T07:19:02.062Z,10.85
2023-04-18T07:21:28.959Z,10.95
2023-04-18T07:23:55.887Z,11.52
2023-04-18T07:26:22.717Z,12.77
2023-04-18T07:28:49.677Z,9.48
2023-04-18T07:31:16.784Z,9.80
2023-04-18T07:33:43.895Z,11.05
2023-04-18T07:36:11.017Z,10.00
2023-04-18T07:38:37.992Z,10.85
2023-04-18T07:41:04.862Z,9.70
2023-04-18T07:43:31.760Z,9.85
2023-04-18T07:45:58.780Z,10.43
2023-04-18T07:48:26.006Z,11.52
2023-04-18T07:50:53.219Z,12.95
2023-04-18T07:53:20.119Z,12.23
2023-04-18T07:55:47.067Z,14.55
2023-04-18T07:58:14.088Z,11.98
2023-04-18T08:00:42.639Z,13.93
2023-04-18T08:03:13.164Z,12.68
2023-04-18T08:05:40.955Z,11.95
2023-04-18T08:08:08.653Z,14.75
2023-04-18T08:10:35.675Z,12.93
2023-04-18T08:13:02.665Z,13.15
2023-04-18T08:15:31.626Z,13.95
2023-04-18T08:17:59.575Z,14.15
2023-04-18T08:20:26.518Z,13.60
2023-04-18T08:23:06.325Z,13.65
2023-04-18T08:25:36.201Z,13.68
2023-04-18T08:28:04.085Z,14.70
2023-04-18T08:30:31.228Z,13.40
2023-04-18T08:32:59.296Z,12.73
2023-04-18T08:35:26.231Z,14.50
2023-04-18T08:37:53.121Z,11.90
2023-04-18T08:40:20.493Z,11.85
2023-04-18T08:42:47.390Z,11.80
2023-04-18T08:45:14.740Z,10.75
2023-04-18T08:47:42.010Z,11.20
2023-04-18T08:50:09.691Z,12.57
2023-04-18T08:52:37.805Z,12.95
2023-04-18T08:55:05.403Z,11.40
2023-04-18T08:57:33.405Z,12.73
2023-04-18T09:00:08.322Z,12.38
2023-04-18T09:02:42.631Z,12.93
2023-04-18T09:05:19.801Z,13.40
2023-04-18T09:07:50.524Z,13.25
2023-04-18T09:10:33.957Z,15.13
2023-04-18T09:13:03.453Z,16.23
2023-04-18T09:15:30.655Z,15.77
2023-04-18T09:17:58.937Z,16.63
2023-04-18T09:20:34.663Z,15.43
2023-04-18T09:23:03.833Z,14.73
2023-04-18T09:25:35.909Z,16.58
2023-04-18T09:28:03.535Z,17.75
2023-04-18T09:30:38.069Z,16.80
2023-04-18T09:33:07.646Z,18.38
2023-04-18T09:35:34.838Z,16.13
2023-04-18T09:38:01.851Z,16.27
2023-04-18T09:40:28.741Z,17.08
2023-04-18T09:42:55.674Z,17.48
2023-04-18T09:45:23.555Z,15.40
2023-04-18T09:47:51.264Z,16.05
2023-04-18T09:50:20.305Z,17.05
2023-04-18T09:52:47.822Z,15.77
2023-04-18T09:55:16.454Z,16.58
2023-04-18T09:57:45.596Z,16.25
2023-04-18T10:00:20.178Z,17.15
2023-04-18T10:03:05.777Z,15.13
2023-04-18T10:05:34.374Z,16.20
2023-04-18T10:08:01.438Z,16.80
2023-04-18T10:10:28.391Z,16.67
2023-04-18T10:12:59.047Z,14.77
2023-04-18T10:15:27.543Z,15.30
2023-04-18T10:18:04.638Z,16.35
2023-04-18T10:20:33.747Z,15.75
2023-04-18T10:23:00.899Z,15.38
2023-04-18T10:25:39.979Z,14.20
2023-04-18T10:28:07.544Z,13.15
2023-04-18T10:30:40.512Z,15.00
2023-04-18T10:33:32.139Z,16.23
2023-04-18T10:36:08.367Z,13.95
2023-04-18T10:38:45.173Z,15.00
2023-04-18T10:41:18.397Z,13.32
2023-04-18T10:44:08.557Z,14.23
2023-04-18T10:46:39.079Z,12.32
2023-04-18T10:49:27.382Z,12.00
2023-04-18T10:51:56.129Z,14.27
2023-04-18T10:54:41.034Z,11.68
2023-04-18T10:57:09.087Z,13.40
2023-04-18T10:59:38.305Z,12.25
2023-04-18T11:02:09.534Z,11.77
2023-04-18T11:04:36.429Z,11.70
2023-04-18T11:07:03.377Z,11.73
2023-04-18T11:09:30.845Z,11.13
2023-04-18T11:12:07.757Z,12.55
2023-04-18T11:14:45.931Z,12.18
2023-04-18T11:17:23.938Z,12.95
2023-04-18T11:19:51.778Z,11.05
2023-04-18T11:22:19.100Z,12.43
2023-04-18T11:24:45.951Z,12.32
2023-04-18T11:27:13.013Z,12.48
2023-04-18T11:29:40.463Z,12.23
2023-04-18T11:32:08.243Z,12.00
2023-04-18T11:34:35.947Z,10.73
2023-04-18T11:37:06.344Z,11.48
2023-04-18T11:39:42.572Z,12.25
2023-04-18T11:42:09.674Z,13.15
2023-04-18T11:44:39.747Z,13.05
2023-04-18T11:47:30.228Z,12.07
2023-04-18T11:50:07.066Z,12.30
2023-04-18T11:52:34.576Z,11.20
2023-04-18T11:55:21.740Z,12.80
2023-04-18T11:57:56.121Z,12.32
2023-04-18T12:00:44.336Z,12.35
2023-04-18T12:03:18.757Z,12.10
2023-04-18T12:05:46.056Z,11.75
2023-04-18T12:08:20.448Z,13.57
2023-04-18T12:10:48.470Z,12.25
2023-04-18T12:13:15.327Z,12.75
2023-04-18T12:15:46.265Z,15.00
2023-04-18T12:18:14.551Z,14.13
2023-04-18T12:20:50.502Z,12.65
2023-04-18T12:23:38.315Z,13.88
2023-04-18T12:26:07.120Z,12.70
2023-04-18T12:28:34.946Z,13.15
2023-04-18T12:31:02.382Z,14.35
2023-04-18T12:33:30.062Z,14.15
2023-04-18T12:35:57.389Z,13.40
2023-04-18T12:38:24.292Z,12.90
2023-04-18T12:40:51.453Z,12.13
2023-04-18T12:43:18.781Z,12.00
2023-04-18T12:45:46.149Z,13.80
2023-04-18T12:48:13.795Z,12.60
2023-04-18T12:50:40.699Z,12.73
2023-04-18T12:53:07.516Z,13.30
2023-04-18T12:55:34.419Z,13.40
2023-04-18T12:58:01.323Z,13.32
2023-04-18T13:00:29.826Z,13.38
2023-04-18T13:02:56.989Z,14.82
2023-04-18T13:05:25.417Z,16.05
2023-04-18T13:07:58.727Z,14.23
2023-04-18T13:10:32.078Z,15.27
2023-04-18T13:12:58.927Z,15.40
2023-04-18T13:15:27.532Z,15.13
2023-04-18T13:17:55.991Z,13.85
2023-04-18T13:20:22.867Z,12.57
2023-04-18T13:22:49.807Z,12.52
2023-04-18T13:25:17.019Z,11.90
2023-04-18T13:27:45.205Z,11.82
2023-04-18T13:30:12.339Z,12.30
2023-04-18T13:32:40.614Z,9.93
2023-04-18T13:35:09.157Z,11.52
2023-04-18T13:37:39.221Z,13.38
2023-04-18T13:40:06.996Z,12.85
2023-04-18T13:42:34.245Z,13.60
2023-04-18T13:45:01.135Z,13.77
2023-04-18T13:47:28.074Z,13.57
2023-04-18T13:49:54.979Z,13.80
2023-04-18T13:52:21.871Z,13.30
2023-04-18T13:54:49.350Z,14.05
2023-04-18T13:57:16.290Z,13.50
2023-04-18T13:59:43.377Z,13.93
2023-04-18T14:02:10.797Z,14.50
2023-04-18T14:04:37.860Z,14.05
2023-04-18T14:07:06.407Z,13.85
2023-04-18T14:09:33.593Z,13.55
2023-04-18T14:12:00.531Z,15.30
2023-04-18T14:14:27.359Z,12.98
2023-04-18T14:16:54.213Z,12.93
2023-04-18T14:19:21.028Z,13.63
2023-04-18T14:21:48.573Z,13.88
2023-04-18T14:24:15.695Z,14.23
2023-04-18T14:26:42.566Z,13.55
2023-04-18T14:29:09.376Z,12.75
2023-04-18T14:31:36.372Z,11.35
2023-04-18T14:34:03.236Z,11.48
2023-04-18T14:36:30.962Z,11.25
2023-04-18T14:38:57.887Z,12.15
2023-04-18T14:41:24.780Z,12.68
2023-04-18T14:43:51.677Z,12.25
2023-04-18T14:46:18.906Z,12.73
2023-04-18T14:48:46.988Z,12.07
2023-04-18T14:51:15.604Z,12.73
2023-04-18T14:53:42.799Z,12.32
2023-04-18T14:56:09.713Z,11.13
2023-04-18T14:58:36.863Z,10.63
2023-04-18T15:01:04.422Z,12.02
2023-04-18T15:03:31.559Z,11.52
2023-04-18T15:05:58.605Z,12.73
2023-04-18T15:08:25.512Z,12.52
2023-04-18T15:10:52.380Z,11.18
2023-04-18T15:13:20.427Z,10.88
2023-04-18T15:15:53.709Z,11.70
2023-04-18T15:18:20.654Z,12.07
2023-04-18T15:20:47.674Z,11.80
2023-04-18T15:23:14.971Z,11.55
2023-04-18T15:25:42.483Z,10.95
2023-04-18T15:28:09.435Z,11.35
2023-04-18T15:30:36.562Z,11.45
2023-04-18T15:33:03.517Z,12.48
2023-04-18T15:35:30.504Z,11.88
2023-04-18T15:37:57.688Z,11.48
2023-04-18T15:40:24.643Z,12.73
2023-04-18T15:42:53.825Z,13.73
2023-04-18T15:45:21.383Z,12.07
2023-04-18T15:47:48.484Z,11.13
2023-04-18T15:50:16.328Z,13.18
2023-04-18T15:52:44.031Z,12.68
2023-04-18T15:55:12.378Z,12.07
2023-04-18T15:57:39.821Z,13.98
2023-04-18T16:00:12.004Z,12.40
2023-04-18T16:02:38.990Z,13.70
2023-04-18T16:05:07.439Z,12.52
2023-04-18T16:07:34.589Z,13.23
2023-04-18T16:10:04.175Z,14.18
2023-04-18T16:12:31.135Z,12.32
2023-04-18T16:14:58.183Z,13.25
2023-04-18T16:17:25.323Z,14.90
2023-04-18T16:19:52.276Z,12.25
2023-04-18T16:22:19.178Z,12.98
2023-04-18T16:24:46.000Z,13.82
2023-04-18T16:27:12.929Z,12.85
2023-04-18T16:29:39.845Z,13.63
2023-04-18T16:32:06.795Z,11.90
2023-04-18T16:34:34.439Z,12.75
2023-04-18T16:37:01.282Z,11.57
2023-04-18T16:39:29.142Z,12.65
2023-04-18T16:41:56.151Z,11.95
2023-04-18T16:44:23.375Z,12.15
2023-04-18T16:46:50.813Z,12.27
2023-04-18T16:49:18.214Z,13.30
2023-04-18T16:51:45.102Z,13.25
2023-04-18T16:54:12.313Z,21.00
2023-04-18T16:56:39.378Z,12.00
2023-04-18T16:59:09.194Z,13.73
2023-04-18T17:01:36.589Z,12.65
2023-04-18T17:04:03.781Z,13.40
2023-04-18T17:06:32.035Z,13.32
2023-04-18T17:08:58.993Z,12.77
2023-04-18T17:11:26.489Z,14.18
2023-04-18T17:13:53.594Z,13.27
2023-04-18T17:16:20.679Z,12.63
2023-04-18T17:18:47.573Z,12.85
2023-04-18T17:21:14.505Z,14.52
2023-04-18T17:23:42.500Z,20.15
2023-04-18T17:26:09.996Z,14.68
2023-04-18T17:28:37.006Z,15.02
2023-04-18T17:31:04.236Z,13.50
2023-04-18T17:33:31.578Z,13.38
2023-04-18T17:35:58.771Z,12.95
2023-04-18T17:38:25.840Z,11.88
2023-04-18T17:41:02.961Z,12.02
2023-04-18T17:43:29.874Z,11.40
2023-04-18T17:46:00.064Z,12.80
2023-04-18T17:48:27.122Z,12.23
2023-04-18T17:50:54.056Z,13.57
2023-04-18T17:53:21.038Z,13.05
2023-04-18T17:55:50.589Z,13.35
2023-04-18T17:58:18.320Z,20.15
2023-04-18T18:00:45.635Z,12.40
2023-04-18T18:03:16.008Z,10.25
2023-04-18T18:05:45.412Z,11.98
2023-04-18T18:08:12.314Z,11.40
2023-04-18T18:10:39.284Z,10.95
2023-04-18T18:13:06.258Z,11.88
2023-04-18T18:15:33.190Z,10.48
2023-04-18T18:18:00.319Z,10.70
2023-04-18T18:20:27.497Z,12.82
2023-04-18T18:22:55.063Z,12.95
2023-04-18T18:25:22.045Z,11.23
2023-04-18T18:27:49.913Z,11.77
2023-04-18T18:30:17.459Z,11.02
2023-04-18T18:32:44.504Z,12.30
2023-04-18T18:35:12.677Z,10.73
2023-04-18T18:37:39.543Z,9.65
2023-04-18T18:40:07.462Z,11.18
2023-04-18T18:42:34.425Z,10.98
2023-04-18T18:45:01.664Z,9.98
2023-04-18T18:47:30.540Z,9.77
2023-04-18T18:49:57.563Z,10.27
2023-04-18T18:52:24.946Z,8.65
2023-04-18T18:54:52.874Z,8.68
2023-04-18T18:57:19.858Z,9.25
2023-04-18T18:59:50.079Z,7.95
2023-04-18T19:02:17.324Z,7.30
2023-04-18T19:04:44.493Z,6.20
2023-04-18T19:07:11.600Z,6.15
2023-04-18T19:09:38.555Z,6.25
2023-04-18T19:12:05.795Z,7.35
2023-04-18T19:14:33.716Z,8.05
2023-04-18T19:17:00.961Z,8.77
2023-04-18T19:19:29.977Z,6.18
2023-04-18T19:21:57.945Z,6.03
2023-04-18T19:24:24.866Z,5.47
2023-04-18T19:26:52.053Z,5.35
2023-04-18T19:29:18.936Z,7.00
2023-04-18T19:31:45.871Z,5.70
2023-04-18T19:34:13.517Z,6.47
2023-04-18T19:36:41.456Z,5.60
2023-04-18T19:39:09.372Z,6.90
2023-04-18T19:41:36.306Z,6.15
2023-04-18T19:44:05.879Z,5.68
2023-04-18T19:46:32.979Z,5.70
2023-04-18T19:48:59.933Z,5.25
2023-04-18T19:51:27.784Z,5.57
2023-04-18T19:53:55.454Z,8.00
2023-04-18T19:56:22.649Z,6.03
2023-04-18T19:58:51.377Z,5.88
2023-04-18T20:01:19.573Z,5.93
2023-04-18T20:03:47.214Z,5.93
2023-04-18T20:06:15.711Z,5.95
2023-04-18T20:08:43.262Z,5.90
2023-04-18T20:11:12.137Z,5.82
2023-04-18T20:13:41.899Z,5.75
2023-04-18T20:16:09.343Z,5.38
2023-04-18T20:18:41.811Z,6.20
2023-04-18T20:21:09.360Z,5.63
2023-04-18T20:23:42.963Z,5.85
2023-04-18T20:26:12.874Z,5.45
2023-04-18T20:28:40.168Z,5.95
2023-04-18T20:31:07.294Z,4.82
2023-04-18T20:33:34.473Z,5.75
2023-04-18T20:36:01.343Z,5.88
2023-04-18T20:38:29.722Z,6.13
2023-04-18T20:40:58.808Z,5.82
2023-04-18T20:43:25.996Z,6.22
2023-04-18T20:45:53.963Z,5.45
2023-04-18T20:48:21.244Z,6.07
2023-04-18T20:50:51.559Z,5.75
2023-04-18T20:53:20.778Z,6.28
2023-04-18T20:55:48.627Z,5.65
2023-04-18T20:58:15.799Z,5.78
2023-04-18T21:00:43.776Z,5.40
2023-04-18T21:03:13.202Z,5.20
2023-04-18T21:05:40.291Z,5.60
2023-04-18T21:08:07.135Z,5.75
2023-04-18T21:10:34.202Z,5.78
2023-04-18T21:13:01.063Z,5.07
2023-04-18T21:15:27.889Z,5.15
2023-04-18T21:17:55.738Z,5.70
2023-04-18T21:20:22.714Z,5.40
2023-04-18T21:22:49.599Z,5.47
2023-04-18T21:25:16.954Z,5.72
2023-04-18T21:27:43.880Z,5.85
2023-04-18T21:30:11.183Z,5.65
2023-04-18T21:32:38.107Z,5.50
2023-04-18T21:35:05.316Z,5.72
2023-04-18T21:37:32.302Z,5.47
2023-04-18T21:39:59.851Z,5.72
2023-04-18T21:42:26.917Z,5.70
2023-04-18T21:44:54.883Z,5.88
2023-04-18T21:47:22.100Z,5.45
2023-04-18T21:49:49.515Z,4.97
2023-04-18T21:52:16.371Z,5.80
2023-04-18T21:54:43.165Z,5.68
2023-04-18T21:57:09.996Z,5.90
2023-04-18T21:59:36.839Z,5.10
2023-04-18T22:02:04.913Z,5.50
2023-04-18T22:04:32.241Z,5.60
2023-04-18T22:06:59.275Z,5.53
2023-04-18T22:09:26.140Z,5.10
2023-04-18T22:11:56.847Z,5.38
2023-04-18T22:14:24.772Z,5.20
2023-04-18T22:16:51.900Z,5.80
2023-04-18T22:19:19.418Z,5.53
2023-04-18T22:21:46.480Z,5.88
2023-04-18T22:24:13.476Z,6.35
2023-04-18T22:26:40.931Z,4.95
2023-04-18T22:29:07.812Z,5.05
2023-04-18T22:31:34.644Z,5.53
2023-04-18T22:34:01.557Z,5.53
2023-04-18T22:36:28.397Z,5.18
2023-04-18T22:38:55.292Z,5.80
2023-04-18T22:41:22.276Z,5.03
2023-04-18T22:43:49.101Z,5.40
2023-04-18T22:46:16.025Z,5.07
2023-04-18T22:48:44.860Z,5.07
2023-04-18T22:51:11.768Z,4.93
2023-04-18T22:53:38.586Z,5.28
2023-04-18T22:56:05.938Z,5.53
2023-04-18T22:58:32.862Z,5.05
2023-04-18T23:00:59.817Z,5.13
2023-04-18T23:03:26.780Z,5.38
2023-04-18T23:05:53.932Z,5.15
2023-04-18T23:08:22.515Z,5.15
2023-04-18T23:10:49.466Z,5.30
2023-04-18T23:13:16.266Z,4.80
2023-04-18T23:15:43.223Z,4.63
2023-04-18T23:18:10.131Z,5.80
2023-04-18T23:20:37.891Z,4.93
2023-04-18T23:23:04.751Z,5.15
2023-04-18T23:25:34.773Z,4.82
2023-04-18T23:28:01.633Z,5.07
2023-04-18T23:30:28.462Z,5.22
2023-04-18T23:32:55.309Z,5.00
2023-04-18T23:35:22.219Z,5.00
2023-04-18T23:37:50.268Z,4.50
2023-04-18T23:40:17.212Z,4.43
2023-04-18T23:42:44.153Z,4.85
2023-04-18T23:45:11.472Z,4.75
2023-04-18T23:47:38.356Z,5.28
2023-04-18T23:50:05.745Z,5.03
2023-04-18T23:52:32.762Z,4.40
2023-04-18T23:55:00.788Z,4.47
2023-04-18T23:57:27.904Z,4.93
2023-04-18T23:59:54.886Z,5.07
